sensor_id;sensor_type;location;lat;lon;timestamp;pressure;altitude;pressure_sealevel;temperature;humidity
706;BME280;21234;48.690;9.016;2022-08-19T00:01:56;95766.81;;;19.11;78.20
706;BME280;21234;48.690;9.016;2022-08-19T00:04:25;95761.13;;;19.07;78.44
706;BME280;21234;48.690;9.016;2022-08-19T00:06:52;95756.09;;;19.09;78.41
706;BME280;21234;48.690;9.016;2022-08-19T00:09:21;95761.44;;;19.06;78.34
706;BME280;21234;48.690;9.016;2022-08-19T00:11:48;95760.31;;;19.07;78.15
706;BME280;21234;48.690;9.016;2022-08-19T00:14:17;95766.31;;;19.09;78.66
706;BME280;21234;48.690;9.016;2022-08-19T00:16:45;95766.13;;;19.05;78.24
706;BME280;21234;48.690;9.016;2022-08-19T00:19:13;95778.72;;;18.98;78.82
706;BME280;21234;48.690;9.016;2022-08-19T00:21:40;95767.69;;;18.98;78.68
706;BME280;21234;48.690;9.016;2022-08-19T00:24:08;95768.50;;;18.98;79.12
706;BME280;21234;48.690;9.016;2022-08-19T00:26:36;95768.50;;;18.98;78.93
706;BME280;21234;48.690;9.016;2022-08-19T00:29:04;95759.63;;;19.01;78.95
706;BME280;21234;48.690;9.016;2022-08-19T00:31:33;95756.69;;;18.98;78.61
706;BME280;21234;48.690;9.016;2022-08-19T00:34:00;95754.56;;;18.95;79.22
706;BME280;21234;48.690;9.016;2022-08-19T00:36:26;95744.97;;;18.92;79.72
706;BME280;21234;48.690;9.016;2022-08-19T00:38:53;95737.84;;;18.91;79.44
706;BME280;21234;48.690;9.016;2022-08-19T00:41:22;95731.66;;;18.86;79.75
706;BME280;21234;48.690;9.016;2022-08-19T00:44:01;95728.28;;;18.89;79.18
706;BME280;21234;48.690;9.016;2022-08-19T00:46:31;95737.66;;;18.88;79.84
706;BME280;21234;48.690;9.016;2022-08-19T00:48:59;95732.47;;;18.86;79.94
706;BME280;21234;48.690;9.016;2022-08-19T00:51:29;95745.28;;;18.91;79.55
706;BME280;21234;48.690;9.016;2022-08-19T00:53:59;95749.34;;;18.93;79.55
706;BME280;21234;48.690;9.016;2022-08-19T00:56:27;95753.06;;;18.89;79.53
706;BME280;21234;48.690;9.016;2022-08-19T00:58:55;95754.19;;;18.88;80.22
706;BME280;21234;48.690;9.016;2022-08-19T01:01:22;95754.19;;;18.88;79.80
706;BME280;21234;48.690;9.016;2022-08-19T01:03:49;95748.69;;;18.88;80.01
706;BME280;21234;48.690;9.016;2022-08-19T01:06:17;95743.66;;;18.90;80.28
706;BME280;21234;48.690;9.016;2022-08-19T01:08:44;95748.88;;;18.91;79.53
706;BME280;21234;48.690;9.016;2022-08-19T01:11:11;95754.03;;;18.84;79.78
706;BME280;21234;48.690;9.016;2022-08-19T01:13:38;95750.47;;;18.84;80.17
706;BME280;21234;48.690;9.016;2022-08-19T01:16:08;95751.59;;;18.83;80.10
706;BME280;21234;48.690;9.016;2022-08-19T01:18:38;95751.59;;;18.83;80.30
706;BME280;21234;48.690;9.016;2022-08-19T01:21:10;95739.44;;;18.84;80.31
706;BME280;21234;48.690;9.016;2022-08-19T01:23:43;95746.09;;;18.83;80.14
706;BME280;21234;48.690;9.016;2022-08-19T01:26:11;95745.59;;;18.89;79.75
706;BME280;21234;48.690;9.016;2022-08-19T01:28:39;95735.88;;;18.83;79.95
706;BME280;21234;48.690;9.016;2022-08-19T01:31:08;95742.19;;;18.84;79.95
706;BME280;21234;48.690;9.016;2022-08-19T01:33:36;95740.88;;;18.81;80.15
706;BME280;21234;48.690;9.016;2022-08-19T01:36:06;95739.56;;;18.78;80.59
706;BME280;21234;48.690;9.016;2022-08-19T01:38:37;95729.88;;;18.81;80.50
706;BME280;21234;48.690;9.016;2022-08-19T01:41:05;95726.63;;;18.79;80.63
706;BME280;21234;48.690;9.016;2022-08-19T01:43:32;95733.06;;;18.74;81.65
706;BME280;21234;48.690;9.016;2022-08-19T01:45:59;95738.38;;;18.71;82.43
706;BME280;21234;48.690;9.016;2022-08-19T01:48:33;95737.38;;;18.67;83.05
706;BME280;21234;48.690;9.016;2022-08-19T01:50:59;95734.44;;;18.63;83.18
706;BME280;21234;48.690;9.016;2022-08-19T01:53:26;95731.78;;;18.58;83.60
706;BME280;21234;48.690;9.016;2022-08-19T01:55:53;95727.41;;;18.57;84.74
706;BME280;21234;48.690;9.016;2022-08-19T01:58:24;95732.56;;;18.50;84.63
706;BME280;21234;48.690;9.016;2022-08-19T02:00:54;95733.50;;;18.45;85.09
706;BME280;21234;48.690;9.016;2022-08-19T02:03:21;95735.88;;;18.38;84.92
706;BME280;21234;48.690;9.016;2022-08-19T02:05:54;95744.13;;;18.38;85.40
706;BME280;21234;48.690;9.016;2022-08-19T02:08:21;95741.69;;;18.37;85.70
706;BME280;21234;48.690;9.016;2022-08-19T02:10:47;95744.44;;;18.37;85.71
706;BME280;21234;48.690;9.016;2022-08-19T02:13:15;95744.63;;;18.40;85.20
706;BME280;21234;48.690;9.016;2022-08-19T02:15:43;95728.75;;;18.37;85.83
706;BME280;21234;48.690;9.016;2022-08-19T02:18:10;95732.94;;;18.35;85.85
706;BME280;21234;48.690;9.016;2022-08-19T02:20:38;95733.44;;;18.37;85.88
706;BME280;21234;48.690;9.016;2022-08-19T02:23:06;95731.00;;;18.35;85.91
706;BME280;21234;48.690;9.016;2022-08-19T02:25:33;95735.06;;;18.38;85.93
706;BME280;21234;48.690;9.016;2022-08-19T02:28:00;95739.75;;;18.37;86.15
706;BME280;21234;48.690;9.016;2022-08-19T02:30:27;95731.69;;;18.41;85.60
706;BME280;21234;48.690;9.016;2022-08-19T02:32:55;95729.25;;;18.39;85.98
706;BME280;21234;48.690;9.016;2022-08-19T02:35:23;95728.94;;;18.41;85.45
706;BME280;21234;48.690;9.016;2022-08-19T02:37:50;95724.38;;;18.36;85.42
706;BME280;21234;48.690;9.016;2022-08-19T02:40:34;95711.91;;;18.39;85.69
706;BME280;21234;48.690;9.016;2022-08-19T02:43:04;95717.72;;;18.37;85.82
706;BME280;21234;48.690;9.016;2022-08-19T02:45:33;95707.66;;;18.33;86.29
706;BME280;21234;48.690;9.016;2022-08-19T02:48:01;95718.03;;;18.36;86.08
706;BME280;21234;48.690;9.016;2022-08-19T02:50:29;95716.72;;;18.33;86.05
706;BME280;21234;48.690;9.016;2022-08-19T02:52:56;95717.03;;;18.32;86.20
706;BME280;21234;48.690;9.016;2022-08-19T02:55:23;95718.47;;;18.29;86.25
706;BME280;21234;48.690;9.016;2022-08-19T02:57:50;95721.72;;;18.31;86.23
706;BME280;21234;48.690;9.016;2022-08-19T03:00:16;95728.06;;;18.32;86.24
706;BME280;21234;48.690;9.016;2022-08-19T03:02:44;95728.47;;;18.25;86.53
706;BME280;21234;48.690;9.016;2022-08-19T03:05:13;95726.03;;;18.24;86.70
706;BME280;21234;48.690;9.016;2022-08-19T03:07:40;95734.16;;;18.29;86.36
706;BME280;21234;48.690;9.016;2022-08-19T03:10:07;95733.34;;;18.28;86.49
706;BME280;21234;48.690;9.016;2022-08-19T03:12:36;95725.72;;;18.25;86.40
706;BME280;21234;48.690;9.016;2022-08-19T03:15:03;95728.78;;;18.24;86.82
706;BME280;21234;48.690;9.016;2022-08-19T03:17:30;95734.75;;;18.17;87.25
706;BME280;21234;48.690;9.016;2022-08-19T03:19:57;95729.25;;;18.17;87.02
706;BME280;21234;48.690;9.016;2022-08-19T03:22:26;95741.38;;;18.16;87.26
706;BME280;21234;48.690;9.016;2022-08-19T03:24:53;95746.97;;;18.11;87.46
706;BME280;21234;48.690;9.016;2022-08-19T03:27:19;95738.31;;;18.18;87.63
706;BME280;21234;48.690;9.016;2022-08-19T03:29:46;95736.50;;;18.13;87.51
706;BME280;21234;48.690;9.016;2022-08-19T03:32:13;95732.13;;;18.12;87.73
706;BME280;21234;48.690;9.016;2022-08-19T03:34:40;95722.53;;;18.09;87.97
706;BME280;21234;48.690;9.016;2022-08-19T03:37:09;95728.66;;;18.06;88.28
706;BME280;21234;48.690;9.016;2022-08-19T03:39:39;95737.41;;;18.08;88.12
706;BME280;21234;48.690;9.016;2022-08-19T03:42:06;95732.84;;;18.04;88.32
706;BME280;21234;48.690;9.016;2022-08-19T03:44:33;95731.22;;;18.03;88.71
706;BME280;21234;48.690;9.016;2022-08-19T03:47:02;95721.03;;;18.03;88.46
706;BME280;21234;48.690;9.016;2022-08-19T03:49:30;95721.97;;;17.99;88.68
706;BME280;21234;48.690;9.016;2022-08-19T03:51:59;95718.91;;;18.00;89.00
706;BME280;21234;48.690;9.016;2022-08-19T03:54:27;95734.88;;;17.98;88.98
706;BME280;21234;48.690;9.016;2022-08-19T03:56:56;95747.31;;;17.96;89.37
706;BME280;21234;48.690;9.016;2022-08-19T03:59:24;95739.78;;;17.88;89.82
706;BME280;21234;48.690;9.016;2022-08-19T04:01:52;95754.56;;;17.92;89.72
706;BME280;21234;48.690;9.016;2022-08-19T04:04:18;95760.66;;;17.89;89.72
706;BME280;21234;48.690;9.016;2022-08-19T04:06:45;95761.69;;;17.93;89.92
706;BME280;21234;48.690;9.016;2022-08-19T04:09:13;95755.69;;;17.91;89.84
706;BME280;21234;48.690;9.016;2022-08-19T04:11:42;95754.88;;;17.90;89.89
706;BME280;21234;48.690;9.016;2022-08-19T04:14:12;95754.88;;;17.90;90.03
706;BME280;21234;48.690;9.016;2022-08-19T04:16:39;95749.88;;;17.92;90.12
706;BME280;21234;48.690;9.016;2022-08-19T04:19:06;95750.50;;;17.89;90.38
706;BME280;21234;48.690;9.016;2022-08-19T04:21:34;95748.84;;;17.88;90.61
706;BME280;21234;48.690;9.016;2022-08-19T04:24:02;95750.13;;;17.82;90.93
706;BME280;21234;48.690;9.016;2022-08-19T04:26:32;95742.38;;;17.84;90.78
706;BME280;21234;48.690;9.016;2022-08-19T04:29:01;95749.00;;;17.83;91.28
706;BME280;21234;48.690;9.016;2022-08-19T04:31:31;95753.38;;;17.84;91.41
706;BME280;21234;48.690;9.016;2022-08-19T04:34:03;95750.44;;;17.81;91.62
706;BME280;21234;48.690;9.016;2022-08-19T04:36:31;95751.56;;;17.79;91.69
706;BME280;21234;48.690;9.016;2022-08-19T04:39:00;95747.16;;;17.78;91.94
706;BME280;21234;48.690;9.016;2022-08-19T04:41:27;95745.44;;;17.83;92.09
706;BME280;21234;48.690;9.016;2022-08-19T04:44:12;95757.75;;;17.85;92.00
706;BME280;21234;48.690;9.016;2022-08-19T04:46:41;95754.31;;;17.79;92.21
706;BME280;21234;48.690;9.016;2022-08-19T04:49:07;95747.06;;;17.84;91.97
706;BME280;21234;48.690;9.016;2022-08-19T04:51:34;95742.50;;;17.79;92.49
706;BME280;21234;48.690;9.016;2022-08-19T04:54:03;95757.88;;;17.80;92.35
706;BME280;21234;48.690;9.016;2022-08-19T04:56:29;95756.03;;;17.75;92.78
706;BME280;21234;48.690;9.016;2022-08-19T04:58:57;95758.78;;;17.75;93.14
706;BME280;21234;48.690;9.016;2022-08-19T05:01:29;95757.88;;;17.80;92.96
706;BME280;21234;48.690;9.016;2022-08-19T05:03:58;95751.56;;;17.79;93.26
706;BME280;21234;48.690;9.016;2022-08-19T05:06:25;95758.06;;;17.84;92.81
706;BME280;21234;48.690;9.016;2022-08-19T05:08:52;95762.25;;;17.81;92.89
706;BME280;21234;48.690;9.016;2022-08-19T05:11:22;95766.31;;;17.84;92.59
706;BME280;21234;48.690;9.016;2022-08-19T05:13:50;95756.94;;;17.85;92.36
706;BME280;21234;48.690;9.016;2022-08-19T05:16:19;95772.63;;;17.84;92.48
706;BME280;21234;48.690;9.016;2022-08-19T05:18:46;95775.38;;;17.84;92.61
706;BME280;21234;48.690;9.016;2022-08-19T05:21:33;95790.53;;;17.82;92.55
706;BME280;21234;48.690;9.016;2022-08-19T05:24:18;95794.41;;;17.81;92.65
706;BME280;21234;48.690;9.016;2022-08-19T05:26:47;95806.44;;;17.85;92.53
706;BME280;21234;48.690;9.016;2022-08-19T05:29:16;95816.31;;;17.86;92.56
706;BME280;21234;48.690;9.016;2022-08-19T05:31:43;95829.25;;;17.85;92.44
706;BME280;21234;48.690;9.016;2022-08-19T05:34:10;95831.69;;;17.87;92.57
706;BME280;21234;48.690;9.016;2022-08-19T05:36:41;95841.06;;;17.86;92.74
706;BME280;21234;48.690;9.016;2022-08-19T05:39:11;95837.34;;;17.90;92.44
706;BME280;21234;48.690;9.016;2022-08-19T05:41:41;95841.63;;;17.96;91.78
706;BME280;21234;48.690;9.016;2022-08-19T05:44:08;95838.38;;;17.94;92.01
706;BME280;21234;48.690;9.016;2022-08-19T05:46:36;95837.56;;;17.94;91.91
706;BME280;21234;48.690;9.016;2022-08-19T05:49:03;95832.06;;;17.94;91.85
706;BME280;21234;48.690;9.016;2022-08-19T05:51:31;95835.41;;;17.91;92.01
706;BME280;21234;48.690;9.016;2022-08-19T05:54:00;95840.09;;;17.90;92.17
706;BME280;21234;48.690;9.016;2022-08-19T05:56:27;95832.97;;;17.89;92.15
706;BME280;21234;48.690;9.016;2022-08-19T05:58:55;95834.31;;;17.92;92.13
706;BME280;21234;48.690;9.016;2022-08-19T06:01:24;95834.00;;;17.93;92.01
706;BME280;21234;48.690;9.016;2022-08-19T06:03:52;95836.75;;;17.93;92.02
706;BME280;21234;48.690;9.016;2022-08-19T06:06:19;95838.69;;;17.93;92.07
706;BME280;21234;48.690;9.016;2022-08-19T06:08:47;95832.56;;;17.96;92.10
706;BME280;21234;48.690;9.016;2022-08-19T06:11:20;95840.00;;;17.95;92.54
706;BME280;21234;48.690;9.016;2022-08-19T06:13:50;95834.19;;;17.97;91.85
706;BME280;21234;48.690;9.016;2022-08-19T06:16:18;95841.94;;;17.95;91.78
706;BME280;21234;48.690;9.016;2022-08-19T06:18:49;95834.19;;;17.97;91.64
706;BME280;21234;48.690;9.016;2022-08-19T06:21:18;95830.31;;;17.98;91.66
706;BME280;21234;48.690;9.016;2022-08-19T06:23:45;95832.78;;;17.99;91.56
706;BME280;21234;48.690;9.016;2022-08-19T06:26:13;95829.09;;;18.04;91.21
706;BME280;21234;48.690;9.016;2022-08-19T06:28:42;95827.28;;;17.99;91.18
706;BME280;21234;48.690;9.016;2022-08-19T06:31:12;95834.59;;;18.04;90.98
706;BME280;21234;48.690;9.016;2022-08-19T06:33:40;95832.16;;;18.02;90.90
706;BME280;21234;48.690;9.016;2022-08-19T06:36:08;95827.47;;;18.03;91.12
706;BME280;21234;48.690;9.016;2022-08-19T06:38:41;95826.25;;;18.09;91.00
706;BME280;21234;48.690;9.016;2022-08-19T06:41:08;95820.44;;;18.10;89.95
706;BME280;21234;48.690;9.016;2022-08-19T06:43:35;95832.56;;;18.09;89.69
706;BME280;21234;48.690;9.016;2022-08-19T06:46:09;95838.97;;;18.05;90.02
706;BME280;21234;48.690;9.016;2022-08-19T06:48:37;95839.19;;;18.08;89.88
706;BME280;21234;48.690;9.016;2022-08-19T06:51:04;95837.44;;;18.12;89.58
706;BME280;21234;48.690;9.016;2022-08-19T06:53:31;95837.03;;;18.19;89.13
706;BME280;21234;48.690;9.016;2022-08-19T06:55:58;95836.22;;;18.19;89.24
706;BME280;21234;48.690;9.016;2022-08-19T06:58:28;95835.06;;;18.20;89.34
706;BME280;21234;48.690;9.016;2022-08-19T07:00:58;95830.56;;;18.24;88.96
706;BME280;21234;48.690;9.016;2022-08-19T07:03:29;95837.28;;;18.31;88.78
706;BME280;21234;48.690;9.016;2022-08-19T07:05:57;95853.00;;;18.31;88.15
706;BME280;21234;48.690;9.016;2022-08-19T07:08:24;95850.94;;;18.36;88.67
706;BME280;21234;48.690;9.016;2022-08-19T07:10:52;95841.88;;;18.36;88.20
706;BME280;21234;48.690;9.016;2022-08-19T07:13:20;95850.22;;;18.44;88.17
706;BME280;21234;48.690;9.016;2022-08-19T07:15:49;95844.72;;;18.44;87.55
706;BME280;21234;48.690;9.016;2022-08-19T07:18:17;95851.66;;;18.42;87.40
706;BME280;21234;48.690;9.016;2022-08-19T07:20:47;95853.97;;;18.49;87.55
706;BME280;21234;48.690;9.016;2022-08-19T07:23:13;95853.44;;;18.60;87.25
706;BME280;21234;48.690;9.016;2022-08-19T07:25:40;95858.53;;;18.67;86.49
706;BME280;21234;48.690;9.016;2022-08-19T07:28:08;95856.66;;;18.76;86.09
706;BME280;21234;48.690;9.016;2022-08-19T07:30:36;95852.47;;;18.78;86.07
706;BME280;21234;48.690;9.016;2022-08-19T07:33:03;95857.16;;;18.78;85.86
706;BME280;21234;48.690;9.016;2022-08-19T07:35:30;95861.34;;;18.75;85.95
706;BME280;21234;48.690;9.016;2022-08-19T07:37:59;95857.78;;;18.75;86.30
706;BME280;21234;48.690;9.016;2022-08-19T07:40:27;95861.47;;;18.70;86.42
706;BME280;21234;48.690;9.016;2022-08-19T07:42:54;95859.53;;;18.71;85.95
706;BME280;21234;48.690;9.016;2022-08-19T07:45:21;95851.88;;;18.68;86.13
706;BME280;21234;48.690;9.016;2022-08-19T07:47:48;95864.97;;;18.62;86.95
706;BME280;21234;48.690;9.016;2022-08-19T07:50:15;95863.84;;;18.63;86.89
706;BME280;21234;48.690;9.016;2022-08-19T07:52:43;95861.28;;;18.67;87.03
706;BME280;21234;48.690;9.016;2022-08-19T07:55:11;95871.16;;;18.68;86.82
706;BME280;21234;48.690;9.016;2022-08-19T07:57:38;95860.34;;;18.71;86.72
706;BME280;21234;48.690;9.016;2022-08-19T08:00:06;95859.84;;;18.69;86.33
706;BME280;21234;48.690;9.016;2022-08-19T08:02:33;95845.25;;;18.55;86.81
706;BME280;21234;48.690;9.016;2022-08-19T08:05:00;95855.16;;;18.56;86.78
706;BME280;21234;48.690;9.016;2022-08-19T08:07:44;95852.19;;;18.53;87.58
706;BME280;21234;48.690;9.016;2022-08-19T08:10:30;95854.47;;;18.51;87.73
706;BME280;21234;48.690;9.016;2022-08-19T08:12:59;95857.72;;;18.53;89.67
706;BME280;21234;48.690;9.016;2022-08-19T08:15:26;95864.78;;;18.45;90.80
706;BME280;21234;48.690;9.016;2022-08-19T08:17:53;95870.50;;;18.35;91.95
706;BME280;21234;48.690;9.016;2022-08-19T08:20:20;95864.09;;;18.26;92.53
706;BME280;21234;48.690;9.016;2022-08-19T08:22:47;95860.84;;;18.24;93.40
706;BME280;21234;48.690;9.016;2022-08-19T08:25:34;95862.47;;;18.25;94.01
706;BME280;21234;48.690;9.016;2022-08-19T08:28:02;95869.09;;;18.24;93.83
706;BME280;21234;48.690;9.016;2022-08-19T08:30:30;95870.41;;;18.26;92.90
706;BME280;21234;48.690;9.016;2022-08-19T08:32:58;95873.78;;;18.23;93.60
706;BME280;21234;48.690;9.016;2022-08-19T08:35:25;95871.22;;;18.27;92.83
706;BME280;21234;48.690;9.016;2022-08-19T08:37:54;95873.78;;;18.23;93.30
706;BME280;21234;48.690;9.016;2022-08-19T08:40:26;95876.34;;;18.20;93.03
706;BME280;21234;48.690;9.016;2022-08-19T08:43:00;95870.03;;;18.19;93.47
706;BME280;21234;48.690;9.016;2022-08-19T08:45:30;95868.06;;;18.20;93.63
706;BME280;21234;48.690;9.016;2022-08-19T08:48:04;95872.47;;;18.21;93.63
706;BME280;21234;48.690;9.016;2022-08-19T08:50:41;95873.78;;;18.23;94.16
706;BME280;21234;48.690;9.016;2022-08-19T08:53:10;95864.09;;;18.26;94.19
706;BME280;21234;48.690;9.016;2022-08-19T08:55:40;95873.16;;;18.26;94.08
706;BME280;21234;48.690;9.016;2022-08-19T08:58:12;95873.56;;;18.33;93.28
706;BME280;21234;48.690;9.016;2022-08-19T09:00:44;95874.47;;;18.42;92.73
706;BME280;21234;48.690;9.016;2022-08-19T09:03:18;95873.25;;;18.49;91.61
706;BME280;21234;48.690;9.016;2022-08-19T09:05:52;95873.28;;;18.57;90.92
706;BME280;21234;48.690;9.016;2022-08-19T09:08:30;95884.13;;;18.67;89.34
706;BME280;21234;48.690;9.016;2022-08-19T09:11:00;95879.72;;;18.66;89.58
706;BME280;21234;48.690;9.016;2022-08-19T09:13:41;95883.28;;;18.67;89.29
706;BME280;21234;48.690;9.016;2022-08-19T09:16:14;95878.50;;;18.72;88.75
706;BME280;21234;48.690;9.016;2022-08-19T09:18:44;95892.97;;;18.78;88.63
706;BME280;21234;48.690;9.016;2022-08-19T09:21:13;95888.16;;;18.84;87.86
706;BME280;21234;48.690;9.016;2022-08-19T09:23:40;95880.56;;;18.89;88.04
706;BME280;21234;48.690;9.016;2022-08-19T09:26:09;95890.75;;;18.89;87.52
706;BME280;21234;48.690;9.016;2022-08-19T09:28:40;95893.81;;;18.87;87.12
706;BME280;21234;48.690;9.016;2022-08-19T09:31:09;95889.75;;;18.85;87.41
706;BME280;21234;48.690;9.016;2022-08-19T09:33:36;95883.94;;;18.86;87.58
706;BME280;21234;48.690;9.016;2022-08-19T09:36:05;95889.31;;;18.91;87.81
706;BME280;21234;48.690;9.016;2022-08-19T09:38:32;95876.75;;;18.99;86.96
706;BME280;21234;48.690;9.016;2022-08-19T09:41:03;95881.63;;;19.02;86.61
706;BME280;21234;48.690;9.016;2022-08-19T09:43:31;95895.41;;;19.02;86.04
706;BME280;21234;48.690;9.016;2022-08-19T09:45:59;95890.72;;;19.02;86.41
706;BME280;21234;48.690;9.016;2022-08-19T09:48:26;95889.59;;;19.03;85.74
706;BME280;21234;48.690;9.016;2022-08-19T09:50:52;95906.50;;;19.10;85.04
706;BME280;21234;48.690;9.016;2022-08-19T09:53:19;95898.84;;;19.07;85.21
706;BME280;21234;48.690;9.016;2022-08-19T09:55:47;95909.25;;;19.10;85.20
706;BME280;21234;48.690;9.016;2022-08-19T09:58:14;95891.13;;;19.18;84.12
706;BME280;21234;48.690;9.016;2022-08-19T10:00:41;95901.84;;;19.20;84.52
706;BME280;21234;48.690;9.016;2022-08-19T10:03:09;95902.34;;;19.22;84.07
706;BME280;21234;48.690;9.016;2022-08-19T10:05:36;95899.28;;;19.23;83.57
706;BME280;21234;48.690;9.016;2022-08-19T10:08:18;95906.91;;;19.26;83.51
706;BME280;21234;48.690;9.016;2022-08-19T10:10:45;95901.22;;;19.23;83.58
706;BME280;21234;48.690;9.016;2022-08-19T10:13:14;95895.88;;;19.26;83.40
706;BME280;21234;48.690;9.016;2022-08-19T10:15:41;95901.78;;;19.33;83.26
706;BME280;21234;48.690;9.016;2022-08-19T10:18:10;95909.41;;;19.36;82.82
706;BME280;21234;48.690;9.016;2022-08-19T10:20:36;95906.66;;;19.36;82.88
706;BME280;21234;48.690;9.016;2022-08-19T10:23:03;95899.41;;;19.40;82.50
706;BME280;21234;48.690;9.016;2022-08-19T10:25:32;95905.72;;;19.41;82.59
706;BME280;21234;48.690;9.016;2022-08-19T10:27:59;95900.84;;;19.38;83.00
706;BME280;21234;48.690;9.016;2022-08-19T10:30:26;95904.91;;;19.40;82.73
706;BME280;21234;48.690;9.016;2022-08-19T10:32:53;95901.84;;;19.42;82.51
706;BME280;21234;48.690;9.016;2022-08-19T10:35:21;95901.03;;;19.41;81.46
706;BME280;21234;48.690;9.016;2022-08-19T10:37:47;95905.91;;;19.44;81.61
706;BME280;21234;48.690;9.016;2022-08-19T10:40:14;95891.50;;;19.48;80.25
706;BME280;21234;48.690;9.016;2022-08-19T10:42:41;95891.69;;;19.51;79.48
706;BME280;21234;48.690;9.016;2022-08-19T10:45:09;95885.53;;;19.54;79.00
706;BME280;21234;48.690;9.016;2022-08-19T10:47:36;95886.22;;;19.60;79.04
706;BME280;21234;48.690;9.016;2022-08-19T10:50:04;95881.72;;;19.64;78.22
706;BME280;21234;48.690;9.016;2022-08-19T10:52:50;95880.56;;;19.65;77.89
706;BME280;21234;48.690;9.016;2022-08-19T10:55:19;95882.06;;;19.71;77.98
706;BME280;21234;48.690;9.016;2022-08-19T10:58:04;95886.16;;;19.82;76.73
706;BME280;21234;48.690;9.016;2022-08-19T11:00:35;95884.06;;;19.88;76.34
706;BME280;21234;48.690;9.016;2022-08-19T11:03:02;95886.06;;;19.96;76.10
706;BME280;21234;48.690;9.016;2022-08-19T11:05:29;95879.59;;;20.00;75.06
706;BME280;21234;48.690;9.016;2022-08-19T11:07:57;95887.25;;;20.12;74.93
706;BME280;21234;48.690;9.016;2022-08-19T11:10:24;95881.88;;;20.16;74.42
706;BME280;21234;48.690;9.016;2022-08-19T11:12:50;95887.28;;;20.29;74.34
706;BME280;21234;48.690;9.016;2022-08-19T11:15:20;95875.94;;;20.31;74.15
706;BME280;21234;48.690;9.016;2022-08-19T11:17:47;95876.31;;;20.38;73.71
706;BME280;21234;48.690;9.016;2022-08-19T11:20:14;95878.75;;;20.39;73.28
706;BME280;21234;48.690;9.016;2022-08-19T11:22:42;95882.19;;;20.45;73.39
706;BME280;21234;48.690;9.016;2022-08-19T11:25:10;95872.59;;;20.42;72.20
706;BME280;21234;48.690;9.016;2022-08-19T11:27:39;95871.44;;;20.43;72.74
706;BME280;21234;48.690;9.016;2022-08-19T11:30:09;95881.03;;;20.37;71.51
706;BME280;21234;48.690;9.016;2022-08-19T11:32:36;95885.09;;;20.40;72.19
706;BME280;21234;48.690;9.016;2022-08-19T11:35:04;95886.72;;;20.41;71.75
706;BME280;21234;48.690;9.016;2022-08-19T11:37:30;95882.00;;;20.41;72.28
706;BME280;21234;48.690;9.016;2022-08-19T11:40:03;95877.28;;;20.42;71.92
706;BME280;21234;48.690;9.016;2022-08-19T11:42:31;95882.19;;;20.45;72.16
706;BME280;21234;48.690;9.016;2022-08-19T11:45:15;95882.81;;;20.51;72.55
706;BME280;21234;48.690;9.016;2022-08-19T11:47:42;95876.00;;;20.57;70.57
706;BME280;21234;48.690;9.016;2022-08-19T11:50:09;95874.53;;;20.51;70.58
706;BME280;21234;48.690;9.016;2022-08-19T11:52:36;95877.47;;;20.54;71.15
706;BME280;21234;48.690;9.016;2022-08-19T11:55:03;95886.72;;;20.58;69.36
706;BME280;21234;48.690;9.016;2022-08-19T11:57:32;95877.31;;;20.59;69.84
706;BME280;21234;48.690;9.016;2022-08-19T11:59:59;95881.38;;;20.62;69.36
706;BME280;21234;48.690;9.016;2022-08-19T12:02:26;95879.25;;;20.67;68.70
706;BME280;21234;48.690;9.016;2022-08-19T12:04:53;95883.00;;;20.71;68.78
706;BME280;21234;48.690;9.016;2022-08-19T12:07:20;95869.53;;;20.70;68.65
706;BME280;21234;48.690;9.016;2022-08-19T12:09:47;95871.78;;;20.68;67.62
706;BME280;21234;48.690;9.016;2022-08-19T12:12:14;95871.00;;;20.76;67.63
706;BME280;21234;48.690;9.016;2022-08-19T12:14:43;95871.28;;;20.83;67.32
706;BME280;21234;48.690;9.016;2022-08-19T12:17:11;95867.88;;;20.86;66.97
706;BME280;21234;48.690;9.016;2022-08-19T12:19:38;95876.00;;;20.91;65.88
706;BME280;21234;48.690;9.016;2022-08-19T12:22:05;95869.19;;;20.97;66.37
706;BME280;21234;48.690;9.016;2022-08-19T12:24:33;95871.78;;;21.11;65.73
706;BME280;21234;48.690;9.016;2022-08-19T12:27:00;95867.56;;;21.31;65.44
706;BME280;21234;48.690;9.016;2022-08-19T12:29:28;95870.78;;;21.41;64.79
706;BME280;21234;48.690;9.016;2022-08-19T12:31:58;95858.38;;;21.48;65.09
706;BME280;21234;48.690;9.016;2022-08-19T12:34:27;95862.28;;;21.55;64.57
706;BME280;21234;48.690;9.016;2022-08-19T12:36:56;95867.16;;;21.58;63.87
706;BME280;21234;48.690;9.016;2022-08-19T12:39:23;95859.81;;;21.62;63.56
706;BME280;21234;48.690;9.016;2022-08-19T12:41:51;95860.63;;;21.63;62.02
706;BME280;21234;48.690;9.016;2022-08-19T12:44:18;95856.25;;;21.62;61.83
706;BME280;21234;48.690;9.016;2022-08-19T12:46:46;95865.66;;;21.69;61.56
706;BME280;21234;48.690;9.016;2022-08-19T12:49:15;95860.59;;;21.71;61.11
706;BME280;21234;48.690;9.016;2022-08-19T12:51:42;95865.34;;;21.71;61.22
706;BME280;21234;48.690;9.016;2022-08-19T12:54:09;95856.25;;;21.62;61.31
706;BME280;21234;48.690;9.016;2022-08-19T12:56:36;95860.47;;;21.59;61.72
706;BME280;21234;48.690;9.016;2022-08-19T12:59:04;95866.81;;;21.60;61.38
706;BME280;21234;48.690;9.016;2022-08-19T13:01:32;95873.00;;;21.65;60.67
706;BME280;21234;48.690;9.016;2022-08-19T13:03:59;95863.41;;;21.63;59.90
706;BME280;21234;48.690;9.016;2022-08-19T13:06:27;95870.22;;;21.65;59.05
706;BME280;21234;48.690;9.016;2022-08-19T13:08:54;95866.81;;;21.68;58.88
706;BME280;21234;48.690;9.016;2022-08-19T13:11:22;95867.97;;;21.59;58.35
706;BME280;21234;48.690;9.016;2022-08-19T13:13:51;95864.06;;;21.60;59.15
706;BME280;21234;48.690;9.016;2022-08-19T13:16:20;95871.84;;;21.66;57.82
706;BME280;21234;48.690;9.016;2022-08-19T13:18:47;95860.75;;;21.75;57.28
706;BME280;21234;48.690;9.016;2022-08-19T13:21:17;95868.50;;;21.90;56.45
706;BME280;21234;48.690;9.016;2022-08-19T13:23:47;95871.22;;;21.99;56.67
706;BME280;21234;48.690;9.016;2022-08-19T13:26:14;95873.53;;;22.05;56.41
706;BME280;21234;48.690;9.016;2022-08-19T13:28:41;95878.03;;;22.10;56.53
706;BME280;21234;48.690;9.016;2022-08-19T13:31:27;95882.97;;;22.04;56.40